Latest Weather Observations for Cape Moreton

IDQ60901

Issued at 3:01 pm EST Monday 31 August 2015 (issued every 10 minutes, with the page automatically refreshed every 10 minutes)

About weather observations | Map of Brisbane area stations | Latest observations for Brisbane area | Other Formats
Station Details ID: 040043 Name: CAPE MORETON LIGHTHOUSE Lat: -27.03 Lon: 153.47 Height: 99.9 m
Data from the previous 72 hours. | See also: Recent months at Cape Moreton
Date/Time
EST
Tmp

°C
App
Tmp
°C
Dew
Point
°C
Rel
Hum
%
Delta-T

°C
Wind Press
QNH
hPa
Press
MSL
hPa
Rain
since
9 am
mm
Dir
 
Spd
km/h
Gust
km/h
Spd
kts
Gust
kts
31/03:00pm 18.5 15.8 11.8 65 3.7 ESE 17 19 9 10 1013.6 1013.4 0.0
31/02:30pm 18.6 15.9 11.7 64 3.8 ESE 17 19 9 10 1013.8 1013.6 0.0
31/02:00pm 18.9 16.3 11.9 64 3.9 ESE 17 20 9 11 1013.9 1013.7 0.0
31/01:30pm 19.0 16.0 11.8 63 4.0 SE 19 22 10 12 1014.2 1014.0 0.0
31/01:00pm 20.1 17.4 12.8 63 4.1 SE 19 22 10 12 1014.5 1014.3 0.0
31/12:30pm 19.3 16.2 12.1 63 4.0 SE 20 24 11 13 1014.6 1014.4 0.0
31/12:00pm 19.4 15.8 11.9 62 4.2 SE 22 26 12 14 1014.9 1014.7 0.0
31/11:30am 18.9 15.6 11.0 60 4.3 SE 19 26 10 14 1015.2 1015.0 0.0
31/11:00am 19.1 15.9 11.2 60 4.3 SE 19 24 10 13 1015.7 1015.5 0.0
31/10:30am 18.4 14.9 10.3 59 4.4 SSE 19 24 10 13 1016.0 1015.8 0.0
31/10:00am 19.0 16.8 10.8 59 4.5 SSE 13 20 7 11 1016.3 1016.1 0.0
31/09:30am 17.7 15.2 9.8 60 4.2 SW 13 20 7 11 1016.4 1016.2 0.0
31/09:00am 16.8 13.7 8.8 59 4.1 SSW 15 20 8 11 1016.6 1016.4 0.0
31/08:30am 16.8 13.4 9.2 61 4.0 SW 17 28 9 15 1016.6 1016.4 0.0
31/08:00am 15.5 11.5 8.3 62 3.6 SW 19 28 10 15 1016.3 1016.1 0.0
31/07:30am 14.6 10.0 8.1 65 3.3 SW 22 30 12 16 1016.0 1015.8 0.0
31/07:00am 13.7 9.4 7.9 68 2.9 SW 20 28 11 15 1015.7 1015.5 0.0
31/06:30am 13.1 8.7 7.5 69 2.7 SW 20 24 11 13 1015.6 1015.4 0.0
31/06:00am 13.1 8.3 7.3 68 2.8 SW 22 32 12 17 1015.3 1015.1 0.0
31/05:30am 13.2 7.9 7.0 66 3.0 SW 24 33 13 18 1015.0 1014.8 0.0
31/05:00am 13.3 8.4 6.9 65 3.1 SW 22 30 12 16 1014.9 1014.7 0.0
31/04:30am 13.7 8.0 6.6 62 3.4 SW 26 35 14 19 1014.9 1014.7 0.0
31/04:00am 13.7 8.4 6.8 63 3.3 SW 24 32 13 17 1014.7 1014.5 0.0
31/03:30am 13.4 8.2 7.2 66 3.0 SW 24 35 13 19 1014.6 1014.4 0.0
31/03:00am 13.4 7.8 7.0 65 3.1 WSW 26 32 14 17 1014.8 1014.6 0.0
31/02:30am 13.8 7.8 7.1 64 3.3 SW 28 35 15 19 1015.0 1014.8 0.0
31/02:00am 13.9 8.8 7.7 66 3.1 SW 24 32 13 17 1015.4 1015.2 0.0
31/01:30am 14.3 9.1 7.4 63 3.4 WSW 24 32 13 17 1015.6 1015.4 0.0
31/01:00am 14.6 9.6 7.9 64 3.3 SW 24 32 13 17 1015.6 1015.4 0.0
31/12:30am 14.8 9.3 7.6 62 3.6 SW 26 35 14 19 1015.8 1015.6 0.0
31/12:00am 15.0 8.9 6.6 57 4.1 SW 28 37 15 20 1016.0 1015.8 0.0
 
Date/Time
EST
Tmp

°C
App
Tmp
°C
Dew
Point
°C
Rel
Hum
%
Delta-T

°C
Wind Press
QNH
hPa
Press
MSL
hPa
Rain
since
9 am
mm
Dir
 
Spd
km/h
Gust
km/h
Spd
kts
Gust
kts
30/11:30pm 15.5 10.6 6.8 56 4.3 SW 22 33 12 18 1016.1 1015.9 0.0
30/11:00pm 15.6 11.1 8.4 62 3.7 SW 22 32 12 17 1016.2 1016.0 0.0
30/10:30pm 16.1 14.9 12.7 80 1.9 SSW 11 19 6 10 1016.4 1016.2 0.0
30/10:00pm 16.4 11.5 8.4 59 4.1 WSW 24 30 13 16 1016.2 1016.0 0.0
30/09:30pm 16.1 11.2 6.8 54 4.6 WSW 22 28 12 15 1016.3 1016.1 0.0
30/09:00pm 16.4 11.9 7.1 54 4.6 WSW 20 28 11 15 1016.2 1016.0 0.0
30/08:30pm 16.4 11.4 6.5 52 4.9 WSW 22 28 12 15 1016.2 1016.0 0.0
30/08:00pm 16.6 12.0 6.7 52 4.9 WSW 20 24 11 13 1016.1 1015.9 0.0
30/07:30pm 16.5 12.5 6.6 52 4.9 SW 17 20 9 11 1015.9 1015.7 0.0
30/07:00pm 17.2 12.6 6.4 49 5.3 WSW 20 24 11 13 1015.4 1015.2 0.0
30/06:30pm 17.5 12.4 5.8 46 5.7 WSW 22 32 12 17 1015.0 1014.8 0.0
30/06:00pm 17.6 12.5 5.9 46 5.7 SW 22 28 12 15 1014.7 1014.5 0.0
30/05:30pm 17.7 13.3 6.6 48 5.5 SW 19 26 10 14 1014.4 1014.2 0.0
30/05:00pm 18.8 14.9 6.9 46 6.0 SW 17 26 9 14 1013.9 1013.7 0.0
30/04:30pm 19.7 15.1 6.4 42 6.7 SW 20 32 11 17 1013.7 1013.5 0.0
30/04:00pm 20.2 15.5 6.2 40 7.0 SW 20 33 11 18 1013.6 1013.4 0.0
30/03:30pm 20.4 16.0 6.7 41 7.0 SW 19 24 10 13 1013.9 1013.7 0.0
30/03:00pm 20.2 14.8 6.2 40 7.0 SW 24 35 13 19 1014.0 1013.8 0.0
30/02:30pm 20.7 16.4 7.7 43 6.7 SW 20 32 11 17 1014.2 1014.0 0.0
30/02:00pm 20.6 16.6 8.3 45 6.4 SW 19 30 10 16 1014.4 1014.2 0.0
30/01:30pm 20.2 15.6 8.2 46 6.3 SW 22 33 12 18 1014.5 1014.3 0.0
30/01:00pm 20.1 15.7 9.1 49 5.8 SW 22 37 12 20 1014.9 1014.7 0.0
30/12:30pm 19.9 16.4 10.3 54 5.2 SW 19 28 10 15 1015.3 1015.1 0.0
30/12:00pm 19.1 14.3 9.0 52 5.3 SW 24 37 13 20 1015.7 1015.5 0.0
30/11:30am 18.9 14.3 9.7 55 4.9 SW 24 37 13 20 1016.3 1016.1 0.0
30/11:00am 18.3 13.1 8.8 54 4.9 SW 26 37 14 20 1016.7 1016.5 0.0
30/10:30am 17.3 13.2 10.0 62 3.9 SW 22 30 12 16 1017.1 1016.9 0.0
30/10:00am 18.2 14.9 11.5 65 3.7 SW 20 32 11 17 1017.4 1017.2 0.0
30/09:30am 17.2 13.0 11.0 67 3.4 WSW 24 35 13 19 1017.3 1017.1 0.0
30/09:00am 16.6 13.7 12.8 78 2.1 WSW 20 30 11 16 1017.6 1017.4 17.0
30/08:30am 15.7 13.2 13.5 87 1.2 WSW 19 26 10 14 1017.5 1017.3 17.0
30/08:00am 15.2 13.4 14.4 95 0.5 WSW 17 22 9 12 1017.3 1017.1 17.0
30/07:30am 14.9 12.5 13.9 94 0.6 WSW 19 24 10 13 1016.9 1016.7 17.0
30/07:00am 15.0 11.9 14.5 97 0.3 WSW 24 32 13 17 1017.2 1017.0 17.0
30/06:30am 14.9 12.2 14.7 99 0.1 WSW 22 28 12 15 1016.9 1016.7 17.0
30/06:00am 15.2 12.6 15.0 99 0.1 WSW 22 30 12 16 1016.8 1016.6 16.8
30/05:30am 15.5 13.6 15.3 99 0.1 WSW 19 24 10 13 1016.6 1016.4 16.8
30/05:00am 15.6 13.6 15.4 99 0.1 WSW 20 24 11 13 1016.3 1016.1 16.8
30/04:30am 15.7 14.3 15.5 99 0.1 WSW 17 22 9 12 1016.3 1016.1 16.8
30/04:00am 15.8 14.8 15.6 99 0.1 WSW 15 20 8 11 1016.1 1015.9 16.8
30/03:30am 15.8 13.8 15.6 99 0.1 WSW 20 26 11 14 1016.5 1016.3 16.8
30/03:00am 15.8 15.2 15.6 99 0.1 W 13 17 7 9 1016.7 1016.5 16.8
30/02:30am 15.6 16.0 15.4 99 0.1 E 7 15 4 8 1016.2 1016.0 16.8
30/02:00am 16.0 15.5 15.8 99 0.1 WSW 13 15 7 8 1017.3 1017.1 16.8
30/01:30am 16.1 15.2 15.9 99 0.1 WSW 15 19 8 10 1018.1 1017.9 16.4
30/01:00am 16.4 15.6 16.2 99 0.1 W 15 19 8 10 1018.7 1018.5 16.0
30/12:30am 16.6 17.4 15.8 95 0.5 W 6 11 3 6 1019.1 1018.9 16.0
30/12:00am 17.0 16.9 16.0 94 0.6 ESE 11 17 6 9 1019.0 1018.8 16.0
 
Date/Time
EST
Tmp

°C
App
Tmp
°C
Dew
Point
°C
Rel
Hum
%
Delta-T

°C
Wind Press
QNH
hPa
Press
MSL
hPa
Rain
since
9 am
mm
Dir
 
Spd
km/h
Gust
km/h
Spd
kts
Gust
kts
29/11:30pm 16.7 14.4 15.7 94 0.6 ESE 22 24 12 13 1018.5 1018.3 16.0
29/11:00pm 16.5 13.6 16.2 98 0.2 ESE 26 30 14 16 1018.3 1018.1 16.0
29/10:30pm 16.3 13.0 16.1 99 0.1 ESE 28 30 15 16 1018.7 1018.5 15.8
29/10:00pm 16.4 15.2 16.2 99 0.1 SE 17 20 9 11 1019.0 1018.8 15.4
29/09:30pm 16.0 14.7 15.8 99 0.1 SE 17 20 9 11 1019.5 1019.4 14.8
29/09:00pm 16.2 14.4 16.0 99 0.1 SE 20 24 11 13 1019.9 1019.8 14.4
29/08:30pm 16.0 14.7 15.8 99 0.1 SSE 17 22 9 12 1020.1 1020.0 13.2
29/08:00pm 16.1 12.4 15.9 99 0.1 SE 30 37 16 20 1019.9 1019.8 8.6
29/07:30pm 16.1 12.0 15.9 99 0.1 S 32 41 17 22 1019.7 1019.6 5.8
29/07:00pm 16.6 13.5 15.5 93 0.6 SSE 26 44 14 24 1019.5 1019.4 1.8
29/06:30pm 19.6 16.8 15.3 76 2.5 E 24 30 13 16 1018.9 1018.7 0.0
29/06:00pm 19.6 16.5 14.6 73 2.9 E 24 28 13 15 1018.8 1018.6 0.0
29/05:30pm 19.5 15.5 14.1 71 3.1 E 28 32 15 17 1018.3 1018.1 0.0
29/05:00pm 19.6 15.9 14.0 70 3.2 E 26 32 14 17 1018.1 1017.9 0.0
29/04:30pm 19.7 16.4 13.9 69 3.4 E 24 30 13 16 1018.1 1017.9 0.0
29/04:00pm 20.2 16.4 14.6 70 3.3 E 28 33 15 18 1018.1 1017.9 0.0
29/03:30pm 19.7 16.4 14.1 70 3.2 E 24 30 13 16 1018.2 1018.0 0.0
29/03:00pm 20.0 17.1 14.1 69 3.4 E 22 28 12 15 1018.5 1018.3 0.0
29/02:30pm 20.4 18.0 14.3 68 3.6 E 20 26 11 14 1019.0 1018.8 0.0
29/02:00pm 20.3 17.0 12.8 62 4.3 E 22 24 12 13 1019.2 1019.1 0.0
29/01:30pm 20.6 18.2 13.8 65 3.9 E 19 22 10 12 1020.1 1020.0 0.0
29/01:00pm 20.7 19.3 14.4 67 3.7 E 15 19 8 10 1020.7 1020.6 0.0
29/12:30pm 20.8 19.3 14.2 66 3.9 ESE 15 20 8 11 1021.1 1021.0 0.0
29/12:00pm 20.3 19.3 14.7 70 3.3 SSE 13 19 7 10 1021.5 1021.4 0.0
29/11:30am 20.5 19.2 14.8 70 3.4 SSE 15 20 8 11 1021.8 1021.7 0.0
29/11:00am 20.0 18.4 15.0 73 2.9 SSE 17 24 9 13 1022.1 1022.0 0.0
29/10:30am 20.4 18.9 15.4 73 3.0 SSE 17 24 9 13 1022.4 1022.3 0.0
29/10:00am 20.1 18.8 15.7 76 2.6 SSE 17 22 9 12 1022.4 1022.3 0.0
29/09:30am 19.4 17.6 15.5 78 2.3 S 19 24 10 13 1022.8 1022.7 0.0
29/09:00am 18.5 17.0 15.2 81 1.9 S 17 20 9 11 1022.7 1022.6 0.0
29/08:30am 18.1 16.4 14.6 80 2.0 S 17 22 9 12 1022.6 1022.5 0.0
29/08:00am 17.6 15.3 14.1 80 2.0 S 19 22 10 12 1022.4 1022.3 0.0
29/07:30am 17.0 15.0 13.9 82 1.8 S 17 20 9 11 1022.4 1022.3 0.0
29/07:00am 16.9 14.5 13.8 82 1.8 S 19 22 10 12 1022.2 1022.1 0.0
29/06:30am 16.4 13.6 13.1 81 1.8 S 20 24 11 13 1022.0 1021.9 0.0
29/06:00am 16.5 14.3 13.4 82 1.7 S 17 19 9 10 1021.7 1021.6 0.0
29/05:30am 16.2 13.7 13.5 84 1.5 S 19 22 10 12 1021.4 1021.3 0.0
29/05:00am 16.1 13.5 13.8 86 1.3 SSW 20 24 11 13 1021.2 1021.1 0.0
29/04:30am 16.5 14.2 14.0 85 1.4 S 19 22 10 12 1020.9 1020.8 0.0
29/04:00am 16.4 13.9 13.5 83 1.6 SSW 19 22 10 12 1021.1 1021.0 0.0
29/03:30am 16.9 14.5 12.8 77 2.3 S 17 20 9 11 1021.1 1021.0 0.0
29/03:00am 17.9 15.6 13.0 73 2.8 SSE 17 20 9 11 1021.2 1021.1 0.0
29/02:30am 18.1 16.6 13.0 72 2.9 S 13 17 7 9 1021.4 1021.3 0.0
29/02:00am 18.1 15.9 13.4 74 2.7 SSE 17 20 9 11 1021.4 1021.3 0.0
29/01:30am 18.0 15.5 13.5 75 2.6 SSE 19 24 10 13 1021.6 1021.5 0.0
29/01:00am 18.4 15.7 13.5 73 2.8 SE 20 24 11 13 1021.8 1021.7 0.0
29/12:30am 18.3 15.6 13.4 73 2.8 SE 20 24 11 13 1021.8 1021.7 0.0
29/12:00am 18.1 16.0 13.6 75 2.6 ESE 17 22 9 12 1022.0 1021.9 0.0
 
Date/Time
EST
Tmp

°C
App
Tmp
°C
Dew
Point
°C
Rel
Hum
%
Delta-T

°C
Wind Press
QNH
hPa
Press
MSL
hPa
Rain
since
9 am
mm
Dir
 
Spd
km/h
Gust
km/h
Spd
kts
Gust
kts
28/11:30pm 17.9 15.9 13.8 77 2.3 SE 17 20 9 11 1022.1 1022.0 0.0
28/11:00pm 18.3 16.3 14.0 76 2.5 SSE 17 20 9 11 1021.9 1021.8 0.0
28/10:30pm 18.3 16.3 14.0 76 2.5 SSE 17 20 9 11 1022.0 1021.9 0.0
28/10:00pm 18.4 17.0 13.5 73 2.8 SSE 13 17 7 9 1022.3 1022.2 0.0
28/09:30pm 18.3 16.7 14.0 76 2.5 SE 15 19 8 10 1022.4 1022.3 0.0
28/09:00pm 18.4 16.3 13.7 74 2.7 ESE 17 20 9 11 1022.3 1022.2 0.0
28/08:30pm 18.5 16.6 14.2 76 2.5 ESE 17 20 9 11 1022.1 1022.0 0.0
28/08:00pm 18.4 15.8 13.7 74 2.7 ESE 20 24 11 13 1021.8 1021.7 0.0
28/07:30pm 18.4 15.8 13.7 74 2.7 ESE 20 24 11 13 1021.3 1021.2 0.0
28/07:00pm 18.2 15.2 13.7 75 2.6 ESE 22 26 12 14 1020.8 1020.7 0.0
28/06:30pm 18.4 14.9 13.3 72 2.9 E 24 28 13 15 1020.1 1020.0 0.0
28/06:00pm 18.2 15.1 13.3 73 2.8 E 22 26 12 14 1019.9 1019.8 0.0
28/05:30pm 18.2 14.6 13.1 72 2.9 ESE 24 28 13 15 1019.6 1019.5 0.0
28/05:00pm 18.5 15.5 13.6 73 2.8 ESE 22 26 12 14 1019.4 1019.3 0.0
28/04:30pm 18.8 16.5 14.7 77 2.4 ESE 20 24 11 13 1019.3 1019.2 0.0
28/04:00pm 18.8 17.2 15.9 83 1.7 ESE 19 20 10 11 1019.3 1019.2 0.0
28/03:30pm 18.8 17.4 15.5 81 2.0 ESE 17 20 9 11 1019.2 1019.1 0.0

Latest Capital City Observations: Canberra | Sydney | Melbourne | Brisbane | Adelaide | Perth | Hobart | Darwin

Other Formats:

Comma delimited format used in spreadsheet applications
http://www.bom.gov.au/fwo/IDQ60901/IDQ60901.94594.axf

JavaScript Object Notation format (JSON) in row-major order
http://www.bom.gov.au/fwo/IDQ60901/IDQ60901.94594.json